createdAt,value
2019-04-27T00:06:07.512Z,9.50
2019-04-27T00:12:10.136Z,9.40
2019-04-27T00:18:16.757Z,9.30
2019-04-27T00:24:19.338Z,9.30
2019-04-27T00:30:21.052Z,9.30
2019-04-27T00:36:24.981Z,9.30
2019-04-27T00:42:27.827Z,9.20
2019-04-27T00:48:29.837Z,9.00
2019-04-27T00:54:31.717Z,9.00
2019-04-27T01:00:38.018Z,8.90
2019-04-27T01:06:39.716Z,8.80
2019-04-27T01:12:42.935Z,8.90
2019-04-27T01:18:44.646Z,8.90
2019-04-27T01:24:46.230Z,9.00
2019-04-27T01:30:49.688Z,9.00
2019-04-27T01:36:51.534Z,9.00
2019-04-27T01:42:54.380Z,8.90
2019-04-27T01:48:56.234Z,8.80
2019-04-27T01:54:59.400Z,8.70
2019-04-27T02:01:03.201Z,8.70
2019-04-27T02:07:06.908Z,8.80
2019-04-27T02:13:09.053Z,8.80
2019-04-27T02:19:11.360Z,8.80
2019-04-27T02:25:13.515Z,8.70
2019-04-27T02:31:35.069Z,8.70
2019-04-27T02:37:36.929Z,8.50
2019-04-27T02:43:49.569Z,8.40
2019-04-27T02:49:51.055Z,8.30
2019-04-27T02:55:53.329Z,8.20
2019-04-27T03:02:02.535Z,8.10
2019-04-27T03:08:04.411Z,7.70
2019-04-27T03:14:32.534Z,7.50
2019-04-27T03:20:45.156Z,7.20
2019-04-27T03:27:00.402Z,7.20
2019-04-27T03:33:03.146Z,7.00
2019-04-27T03:39:06.485Z,7.10
2019-04-27T03:45:10.714Z,7.10
2019-04-27T03:51:20.102Z,7.20
2019-04-27T03:57:29.616Z,7.40
2019-04-27T04:03:30.767Z,7.30
2019-04-27T04:09:40.147Z,7.20
2019-04-27T04:16:00.271Z,7.20
2019-04-27T04:22:02.062Z,7.20
2019-04-27T04:28:03.630Z,7.20
2019-04-27T04:34:05.103Z,7.20
2019-04-27T04:40:06.813Z,7.30
2019-04-27T04:46:26.771Z,7.50
2019-04-27T04:52:29.454Z,7.70
2019-04-27T04:58:31.159Z,7.80
2019-04-27T05:04:32.626Z,8.10
2019-04-27T05:10:34.091Z,8.40
2019-04-27T05:16:35.543Z,8.60
2019-04-27T05:22:37.002Z,8.60
2019-04-27T05:28:40.635Z,8.50
2019-04-27T05:34:41.729Z,8.70
2019-04-27T05:40:43.552Z,8.80
2019-04-27T05:46:52.927Z,9.10
2019-04-27T05:52:54.461Z,9.30
2019-04-27T05:58:55.972Z,9.50
2019-04-27T06:04:59.792Z,9.80
2019-04-27T06:11:01.135Z,9.90
2019-04-27T06:17:02.794Z,10.00
2019-04-27T06:23:04.255Z,9.60
2019-04-27T06:29:05.715Z,9.50
2019-04-27T06:35:09.142Z,9.80
2019-04-27T06:41:10.767Z,10.30
2019-04-27T06:47:12.220Z,10.90
2019-04-27T06:53:13.743Z,11.00
2019-04-27T06:59:15.306Z,11.10
2019-04-27T07:05:18.504Z,10.80
2019-04-27T07:11:20.290Z,10.70
2019-04-27T07:17:22.998Z,11.00
2019-04-27T07:23:24.449Z,11.30
2019-04-27T07:29:26.007Z,11.70
2019-04-27T07:35:29.570Z,12.10
2019-04-27T07:41:31.149Z,12.70
2019-04-27T07:47:32.754Z,13.50
2019-04-27T07:53:34.332Z,13.80
2019-04-27T07:59:35.814Z,13.60
2019-04-27T08:05:39.026Z,13.30
2019-04-27T08:11:40.529Z,13.30
2019-04-27T08:17:42.894Z,13.60
2019-04-27T08:23:44.469Z,13.60
2019-04-27T08:29:48.783Z,13.80
2019-04-27T08:35:50.586Z,14.70
2019-04-27T08:41:52.089Z,15.50
2019-04-27T08:47:53.496Z,15.60
2019-04-27T08:53:55.099Z,15.10
2019-04-27T08:59:56.540Z,15.00
2019-04-27T09:05:59.044Z,15.70
2019-04-27T09:12:19.651Z,16.10
2019-04-27T09:18:23.196Z,16.50
2019-04-27T09:24:24.765Z,15.80
2019-04-27T09:30:26.160Z,15.90
2019-04-27T09:36:27.659Z,16.10
2019-04-27T09:42:29.963Z,16.60
2019-04-27T09:48:31.421Z,16.70
2019-04-27T09:54:32.899Z,16.70
2019-04-27T10:00:36.327Z,16.80
2019-04-27T10:06:37.870Z,16.80
2019-04-27T10:12:39.534Z,15.60
2019-04-27T10:18:41.078Z,15.80
2019-04-27T10:24:42.594Z,16.30
2019-04-27T10:30:45.665Z,16.90
2019-04-27T10:36:47.311Z,17.10
2019-04-27T10:42:48.882Z,16.80
2019-04-27T10:48:50.444Z,16.70
2019-04-27T10:54:51.886Z,16.90
2019-04-27T11:00:58.452Z,17.50
2019-04-27T11:07:02.070Z,18.10
2019-04-27T11:13:03.976Z,19.00
2019-04-27T11:19:06.618Z,18.30
2019-04-27T11:25:09.382Z,17.00
2019-04-27T11:31:10.820Z,16.00
2019-04-27T11:37:13.905Z,15.10
2019-04-27T11:43:16.072Z,14.70
2019-04-27T11:49:18.611Z,15.00
2019-04-27T11:55:21.247Z,15.90
2019-04-27T12:01:22.874Z,16.30
2019-04-27T12:07:25.465Z,17.20
2019-04-27T12:13:28.100Z,17.10
2019-04-27T12:19:29.583Z,17.20
2019-04-27T12:25:31.174Z,16.00
2019-04-27T12:31:35.871Z,15.40
2019-04-27T12:37:37.646Z,15.10
2019-04-27T12:43:39.117Z,15.00
2019-04-27T12:49:40.903Z,15.60
2019-04-27T12:56:00.802Z,15.90
2019-04-27T13:02:02.811Z,17.10
2019-04-27T13:08:04.553Z,17.00
2019-04-27T13:14:07.245Z,16.30
2019-04-27T13:20:09.119Z,15.60
2019-04-27T13:26:10.670Z,15.30
2019-04-27T13:32:12.229Z,15.10
2019-04-27T13:38:13.674Z,14.80
2019-04-27T13:44:16.021Z,14.80
2019-04-27T13:50:25.415Z,14.30
2019-04-27T13:56:27.217Z,14.30
2019-04-27T14:02:32.240Z,14.80
2019-04-27T14:08:31.976Z,14.80
2019-04-27T14:14:33.783Z,14.10
2019-04-27T14:20:35.436Z,13.70
2019-04-27T14:26:38.596Z,13.80
2019-04-27T14:32:42.296Z,13.80
2019-04-27T14:38:43.512Z,13.90
2019-04-27T14:44:48.810Z,13.80
2019-04-27T14:50:50.611Z,13.70
2019-04-27T14:56:52.153Z,13.80
2019-04-27T15:02:53.818Z,13.70
2019-04-27T15:08:55.802Z,13.50
2019-04-27T15:14:59.452Z,13.50
2019-04-27T15:21:02.600Z,14.10
2019-04-27T15:27:06.304Z,14.70
2019-04-27T15:33:15.978Z,14.80
2019-04-27T15:39:41.848Z,14.40
2019-04-27T15:45:43.516Z,14.00
2019-04-27T15:51:45.077Z,13.80
2019-04-27T15:57:46.972Z,12.90
2019-04-27T16:03:52.147Z,11.00
2019-04-27T16:09:54.418Z,10.00
2019-04-27T16:15:58.400Z,9.60
2019-04-27T16:21:59.918Z,9.40
2019-04-27T16:28:04.509Z,9.10
2019-04-27T16:34:05.112Z,9.00
2019-04-27T16:40:08.416Z,8.80
2019-04-27T16:46:10.518Z,8.90
2019-04-27T16:52:16.030Z,9.00
2019-04-27T16:58:17.715Z,9.20
2019-04-27T17:04:19.005Z,9.40
2019-04-27T17:10:25.459Z,9.60
2019-04-27T17:16:39.037Z,9.80
2019-04-27T17:22:40.567Z,9.70
2019-04-27T17:28:50.562Z,9.80
2019-04-27T17:34:50.377Z,9.80
2019-04-27T17:40:52.202Z,9.60
2019-04-27T17:46:53.789Z,9.50
2019-04-27T17:52:56.966Z,9.50
2019-04-27T17:58:58.699Z,9.60
2019-04-27T18:05:00.193Z,9.50
2019-04-27T18:11:03.285Z,9.40
2019-04-27T18:17:10.341Z,9.30
2019-04-27T18:23:15.002Z,9.20
2019-04-27T18:29:13.420Z,9.10
2019-04-27T18:35:15.215Z,9.10
2019-04-27T18:41:18.385Z,9.00
2019-04-27T18:47:20.039Z,9.00
2019-04-27T18:53:24.617Z,8.90
2019-04-27T18:59:28.851Z,8.80
2019-04-27T19:05:39.711Z,8.70
2019-04-27T19:11:35.106Z,8.50
2019-04-27T19:17:38.738Z,8.30
2019-04-27T19:23:40.504Z,8.20
2019-04-27T19:29:44.009Z,8.00
2019-04-27T19:35:45.516Z,7.90
2019-04-27T19:41:59.430Z,7.90
2019-04-27T19:47:51.924Z,7.70
2019-04-27T19:53:53.378Z,7.60
2019-04-27T19:59:58.747Z,7.60
2019-04-27T20:06:00.319Z,7.50
2019-04-27T20:12:02.874Z,7.60
2019-04-27T20:18:05.646Z,7.60
2019-04-27T20:24:07.192Z,7.60
2019-04-27T20:30:11.216Z,7.60
2019-04-27T20:36:13.617Z,7.70
2019-04-27T20:42:16.814Z,7.80
2019-04-27T20:48:18.840Z,7.80
2019-04-27T20:54:22.723Z,7.80
2019-04-27T21:00:24.493Z,7.80
2019-04-27T21:06:33.775Z,7.90
2019-04-27T21:12:35.242Z,7.90
2019-04-27T21:18:37.889Z,7.90
2019-04-27T21:24:41.236Z,7.90
2019-04-27T21:30:42.794Z,8.00
2019-04-27T21:36:45.229Z,8.00
2019-04-27T21:42:47.199Z,8.00
2019-04-27T21:48:48.815Z,8.00
2019-04-27T21:54:53.838Z,8.10
2019-04-27T22:01:00.012Z,8.00
2019-04-27T22:07:03.730Z,8.00
2019-04-27T22:13:05.193Z,7.90
2019-04-27T22:19:07.921Z,7.90
2019-04-27T22:25:38.563Z,7.90
2019-04-27T22:31:41.535Z,8.00
2019-04-27T22:37:43.136Z,8.00
2019-04-27T22:43:55.394Z,7.90
2019-04-27T22:56:36.190Z,7.80
2019-04-27T23:02:42.400Z,7.80
2019-04-27T23:08:43.999Z,7.70
2019-04-27T23:14:45.567Z,7.70
2019-04-27T23:20:47.121Z,7.60
2019-04-27T23:26:48.519Z,7.50
2019-04-27T23:32:52.018Z,7.50
2019-04-27T23:38:53.531Z,7.50
2019-04-27T23:44:55.161Z,7.50
2019-04-27T23:50:58.931Z,7.50
2019-04-27T23:57:01.821Z,7.60
